sensor_id;sensor_type;location;lat;lon;timestamp;temperature;humidity
1468;DHT22;727;48.892;9.544;2023-02-01T00:01:55;4.70;99.90
1468;DHT22;727;48.892;9.544;2023-02-01T00:04:22;4.70;99.90
1468;DHT22;727;48.892;9.544;2023-02-01T00:06:50;4.70;99.90
1468;DHT22;727;48.892;9.544;2023-02-01T00:09:17;4.70;99.90
1468;DHT22;727;48.892;9.544;2023-02-01T00:11:44;4.70;99.90
1468;DHT22;727;48.892;9.544;2023-02-01T00:14:11;4.70;99.90
1468;DHT22;727;48.892;9.544;2023-02-01T00:16:37;4.60;99.90
1468;DHT22;727;48.892;9.544;2023-02-01T00:19:06;4.70;99.90
1468;DHT22;727;48.892;9.544;2023-02-01T00:21:33;4.70;99.90
1468;DHT22;727;48.892;9.544;2023-02-01T00:24:02;4.80;99.90
1468;DHT22;727;48.892;9.544;2023-02-01T00:26:31;4.70;99.90
1468;DHT22;727;48.892;9.544;2023-02-01T00:28:59;4.70;99.90
1468;DHT22;727;48.892;9.544;2023-02-01T00:31:26;4.80;99.90
1468;DHT22;727;48.892;9.544;2023-02-01T00:33:53;4.80;99.90
1468;DHT22;727;48.892;9.544;2023-02-01T00:36:19;4.80;99.90
1468;DHT22;727;48.892;9.544;2023-02-01T00:38:46;4.80;99.90
1468;DHT22;727;48.892;9.544;2023-02-01T00:41:16;4.80;99.90
1468;DHT22;727;48.892;9.544;2023-02-01T00:43:43;4.80;99.90
1468;DHT22;727;48.892;9.544;2023-02-01T00:46:11;4.80;99.90
1468;DHT22;727;48.892;9.544;2023-02-01T00:48:38;4.80;99.90
1468;DHT22;727;48.892;9.544;2023-02-01T00:51:07;4.90;99.90
1468;DHT22;727;48.892;9.544;2023-02-01T00:53:35;4.90;99.90
1468;DHT22;727;48.892;9.544;2023-02-01T00:56:03;4.90;99.90
1468;DHT22;727;48.892;9.544;2023-02-01T00:58:32;4.90;99.90
1468;DHT22;727;48.892;9.544;2023-02-01T01:01:04;4.90;99.90
1468;DHT22;727;48.892;9.544;2023-02-01T01:03:33;4.90;99.90
1468;DHT22;727;48.892;9.544;2023-02-01T01:06:03;4.90;99.90
1468;DHT22;727;48.892;9.544;2023-02-01T01:08:30;5.00;99.90
1468;DHT22;727;48.892;9.544;2023-02-01T01:10:56;4.90;99.90
1468;DHT22;727;48.892;9.544;2023-02-01T01:13:23;4.90;99.90
1468;DHT22;727;48.892;9.544;2023-02-01T01:15:51;4.90;99.90
1468;DHT22;727;48.892;9.544;2023-02-01T01:18:18;4.90;99.90
1468;DHT22;727;48.892;9.544;2023-02-01T01:20:45;4.80;99.90
1468;DHT22;727;48.892;9.544;2023-02-01T01:23:12;4.90;99.90
1468;DHT22;727;48.892;9.544;2023-02-01T01:25:39;4.90;99.90
1468;DHT22;727;48.892;9.544;2023-02-01T01:28:06;4.80;99.90
1468;DHT22;727;48.892;9.544;2023-02-01T01:30:34;4.80;99.90
1468;DHT22;727;48.892;9.544;2023-02-01T01:33:02;4.80;99.90
1468;DHT22;727;48.892;9.544;2023-02-01T01:35:30;4.70;99.90
1468;DHT22;727;48.892;9.544;2023-02-01T01:37:57;4.70;99.90
1468;DHT22;727;48.892;9.544;2023-02-01T01:40:24;4.70;99.90
1468;DHT22;727;48.892;9.544;2023-02-01T01:42:51;4.70;99.90
1468;DHT22;727;48.892;9.544;2023-02-01T01:45:24;4.80;99.90
1468;DHT22;727;48.892;9.544;2023-02-01T01:47:54;4.80;99.90
1468;DHT22;727;48.892;9.544;2023-02-01T01:50:24;4.70;99.90
1468;DHT22;727;48.892;9.544;2023-02-01T01:52:55;4.80;99.90
1468;DHT22;727;48.892;9.544;2023-02-01T01:55:24;4.80;99.90
1468;DHT22;727;48.892;9.544;2023-02-01T01:57:55;4.90;99.90
1468;DHT22;727;48.892;9.544;2023-02-01T02:00:22;5.00;99.90
1468;DHT22;727;48.892;9.544;2023-02-01T02:02:54;5.00;99.90
1468;DHT22;727;48.892;9.544;2023-02-01T02:05:25;5.00;99.90
1468;DHT22;727;48.892;9.544;2023-02-01T02:07:53;5.00;99.90
1468;DHT22;727;48.892;9.544;2023-02-01T02:10:22;4.90;99.90
1468;DHT22;727;48.892;9.544;2023-02-01T02:13:09;5.00;99.90
1468;DHT22;727;48.892;9.544;2023-02-01T02:15:40;5.00;99.90
1468;DHT22;727;48.892;9.544;2023-02-01T02:18:12;5.00;99.90
1468;DHT22;727;48.892;9.544;2023-02-01T02:21:10;5.00;99.90
1468;DHT22;727;48.892;9.544;2023-02-01T02:27:00;5.00;99.90
1468;DHT22;727;48.892;9.544;2023-02-01T02:29:49;5.00;99.90
1468;DHT22;727;48.892;9.544;2023-02-01T02:32:52;5.00;99.90
1468;DHT22;727;48.892;9.544;2023-02-01T02:35:30;5.00;99.90
1468;DHT22;727;48.892;9.544;2023-02-01T02:38:09;5.10;99.90
1468;DHT22;727;48.892;9.544;2023-02-01T02:40:44;5.00;99.90
1468;DHT22;727;48.892;9.544;2023-02-01T02:43:20;5.00;99.90
1468;DHT22;727;48.892;9.544;2023-02-01T02:46:07;5.00;99.90
1468;DHT22;727;48.892;9.544;2023-02-01T02:49:00;5.10;99.90
1468;DHT22;727;48.892;9.544;2023-02-01T02:51:34;5.10;99.90
1468;DHT22;727;48.892;9.544;2023-02-01T02:54:22;5.00;99.90
1468;DHT22;727;48.892;9.544;2023-02-01T02:57:11;5.10;99.90
1468;DHT22;727;48.892;9.544;2023-02-01T02:59:58;5.10;99.90
1468;DHT22;727;48.892;9.544;2023-02-01T03:02:43;5.00;99.90
1468;DHT22;727;48.892;9.544;2023-02-01T03:05:32;5.00;99.90
1468;DHT22;727;48.892;9.544;2023-02-01T03:08:10;5.00;99.90
1468;DHT22;727;48.892;9.544;2023-02-01T03:10:47;5.00;99.90
1468;DHT22;727;48.892;9.544;2023-02-01T03:13:20;5.00;99.90
1468;DHT22;727;48.892;9.544;2023-02-01T03:15:51;5.00;99.90
1468;DHT22;727;48.892;9.544;2023-02-01T03:18:26;5.00;99.90
1468;DHT22;727;48.892;9.544;2023-02-01T03:20:55;5.00;99.90
1468;DHT22;727;48.892;9.544;2023-02-01T03:23:27;5.00;99.90
1468;DHT22;727;48.892;9.544;2023-02-01T03:25:56;5.00;99.90
1468;DHT22;727;48.892;9.544;2023-02-01T03:28:25;5.00;99.90
1468;DHT22;727;48.892;9.544;2023-02-01T03:30:54;5.00;99.90
1468;DHT22;727;48.892;9.544;2023-02-01T03:33:23;5.00;99.90
1468;DHT22;727;48.892;9.544;2023-02-01T03:35:57;5.00;99.90
1468;DHT22;727;48.892;9.544;2023-02-01T03:38:31;5.00;99.90
1468;DHT22;727;48.892;9.544;2023-02-01T03:41:03;5.00;99.90
1468;DHT22;727;48.892;9.544;2023-02-01T03:43:51;5.00;99.90
1468;DHT22;727;48.892;9.544;2023-02-01T03:46:25;5.00;99.90
1468;DHT22;727;48.892;9.544;2023-02-01T03:48:54;5.00;99.90
1468;DHT22;727;48.892;9.544;2023-02-01T03:51:22;5.00;99.90
1468;DHT22;727;48.892;9.544;2023-02-01T03:53:52;5.00;99.90
1468;DHT22;727;48.892;9.544;2023-02-01T03:56:21;5.00;99.90
1468;DHT22;727;48.892;9.544;2023-02-01T03:58:49;5.00;99.90
1468;DHT22;727;48.892;9.544;2023-02-01T04:01:26;5.00;99.90
1468;DHT22;727;48.892;9.544;2023-02-01T04:03:53;5.10;99.90
1468;DHT22;727;48.892;9.544;2023-02-01T04:06:20;5.00;99.90
1468;DHT22;727;48.892;9.544;2023-02-01T04:08:46;5.00;99.90
1468;DHT22;727;48.892;9.544;2023-02-01T04:11:15;5.00;99.90
1468;DHT22;727;48.892;9.544;2023-02-01T04:13:42;5.00;99.90
1468;DHT22;727;48.892;9.544;2023-02-01T04:16:09;5.00;99.90
1468;DHT22;727;48.892;9.544;2023-02-01T04:18:35;5.00;99.90
1468;DHT22;727;48.892;9.544;2023-02-01T04:21:03;5.10;99.90
1468;DHT22;727;48.892;9.544;2023-02-01T04:23:30;5.20;99.90
1468;DHT22;727;48.892;9.544;2023-02-01T04:25:59;5.20;99.90
1468;DHT22;727;48.892;9.544;2023-02-01T04:28:28;5.10;99.90
1468;DHT22;727;48.892;9.544;2023-02-01T04:30:55;5.10;99.90
1468;DHT22;727;48.892;9.544;2023-02-01T04:33:22;5.00;99.90
1468;DHT22;727;48.892;9.544;2023-02-01T04:35:49;5.00;99.90
1468;DHT22;727;48.892;9.544;2023-02-01T04:38:15;5.00;99.90
1468;DHT22;727;48.892;9.544;2023-02-01T04:40:42;4.90;99.90
1468;DHT22;727;48.892;9.544;2023-02-01T04:43:09;4.90;99.90
1468;DHT22;727;48.892;9.544;2023-02-01T04:45:37;5.00;99.90
1468;DHT22;727;48.892;9.544;2023-02-01T04:48:04;5.00;99.90
1468;DHT22;727;48.892;9.544;2023-02-01T04:50:31;5.00;99.90
1468;DHT22;727;48.892;9.544;2023-02-01T04:52:58;5.00;99.90
1468;DHT22;727;48.892;9.544;2023-02-01T04:55:25;5.10;99.90
1468;DHT22;727;48.892;9.544;2023-02-01T04:57:51;5.10;99.90
1468;DHT22;727;48.892;9.544;2023-02-01T05:00:18;5.20;99.90
1468;DHT22;727;48.892;9.544;2023-02-01T05:02:47;5.10;99.90
1468;DHT22;727;48.892;9.544;2023-02-01T05:05:14;5.20;99.90
1468;DHT22;727;48.892;9.544;2023-02-01T05:07:40;5.30;99.90
1468;DHT22;727;48.892;9.544;2023-02-01T05:10:08;5.30;99.90
1468;DHT22;727;48.892;9.544;2023-02-01T05:12:35;5.30;99.90
1468;DHT22;727;48.892;9.544;2023-02-01T05:15:19;5.20;99.90
1468;DHT22;727;48.892;9.544;2023-02-01T05:17:48;5.20;99.90
1468;DHT22;727;48.892;9.544;2023-02-01T05:20:14;5.20;99.90
1468;DHT22;727;48.892;9.544;2023-02-01T05:22:41;5.20;99.90
1468;DHT22;727;48.892;9.544;2023-02-01T05:25:08;5.20;99.90
1468;DHT22;727;48.892;9.544;2023-02-01T05:27:36;5.10;99.90
1468;DHT22;727;48.892;9.544;2023-02-01T05:30:03;5.20;99.90
1468;DHT22;727;48.892;9.544;2023-02-01T05:32:30;5.20;99.90
1468;DHT22;727;48.892;9.544;2023-02-01T05:34:58;5.20;99.90
1468;DHT22;727;48.892;9.544;2023-02-01T05:37:25;5.10;99.90
1468;DHT22;727;48.892;9.544;2023-02-01T05:39:52;5.10;99.90
1468;DHT22;727;48.892;9.544;2023-02-01T05:42:19;5.20;99.90
1468;DHT22;727;48.892;9.544;2023-02-01T05:44:46;5.20;99.90
1468;DHT22;727;48.892;9.544;2023-02-01T05:47:12;5.30;99.90
1468;DHT22;727;48.892;9.544;2023-02-01T05:49:39;5.30;99.90
1468;DHT22;727;48.892;9.544;2023-02-01T05:52:07;5.30;99.90
1468;DHT22;727;48.892;9.544;2023-02-01T05:54:34;5.30;99.90
1468;DHT22;727;48.892;9.544;2023-02-01T05:57:01;5.30;99.90
1468;DHT22;727;48.892;9.544;2023-02-01T05:59:27;5.30;99.90
1468;DHT22;727;48.892;9.544;2023-02-01T06:01:54;5.30;99.90
1468;DHT22;727;48.892;9.544;2023-02-01T06:04:21;5.30;99.90
1468;DHT22;727;48.892;9.544;2023-02-01T06:06:48;5.30;99.90
1468;DHT22;727;48.892;9.544;2023-02-01T06:09:17;5.30;99.90
1468;DHT22;727;48.892;9.544;2023-02-01T06:11:44;5.40;99.90
1468;DHT22;727;48.892;9.544;2023-02-01T06:14:10;5.50;99.90
1468;DHT22;727;48.892;9.544;2023-02-01T06:16:37;5.40;99.90
1468;DHT22;727;48.892;9.544;2023-02-01T06:19:04;5.50;99.90
1468;DHT22;727;48.892;9.544;2023-02-01T06:21:30;5.50;99.90
1468;DHT22;727;48.892;9.544;2023-02-01T06:23:58;5.50;99.90
1468;DHT22;727;48.892;9.544;2023-02-01T06:26:27;5.50;99.90
1468;DHT22;727;48.892;9.544;2023-02-01T06:28:54;5.50;99.90
1468;DHT22;727;48.892;9.544;2023-02-01T06:31:21;5.50;99.90
1468;DHT22;727;48.892;9.544;2023-02-01T06:33:49;5.50;99.90
1468;DHT22;727;48.892;9.544;2023-02-01T06:36:15;5.60;99.90
1468;DHT22;727;48.892;9.544;2023-02-01T06:38:44;5.50;99.90
1468;DHT22;727;48.892;9.544;2023-02-01T06:41:10;5.60;99.90
1468;DHT22;727;48.892;9.544;2023-02-01T06:43:38;5.60;99.90
1468;DHT22;727;48.892;9.544;2023-02-01T06:46:07;5.70;99.90
1468;DHT22;727;48.892;9.544;2023-02-01T06:48:34;5.70;99.90
1468;DHT22;727;48.892;9.544;2023-02-01T06:51:01;5.70;99.90
1468;DHT22;727;48.892;9.544;2023-02-01T06:53:28;5.70;99.90
1468;DHT22;727;48.892;9.544;2023-02-01T06:55:57;5.60;99.90
1468;DHT22;727;48.892;9.544;2023-02-01T06:58:24;5.60;99.90
1468;DHT22;727;48.892;9.544;2023-02-01T07:00:52;5.60;99.90
1468;DHT22;727;48.892;9.544;2023-02-01T07:03:19;5.60;99.90
1468;DHT22;727;48.892;9.544;2023-02-01T07:05:46;5.50;99.90
1468;DHT22;727;48.892;9.544;2023-02-01T07:08:12;5.60;99.90
1468;DHT22;727;48.892;9.544;2023-02-01T07:10:39;5.50;99.90
1468;DHT22;727;48.892;9.544;2023-02-01T07:13:06;5.50;99.90
1468;DHT22;727;48.892;9.544;2023-02-01T07:15:33;5.60;99.90
1468;DHT22;727;48.892;9.544;2023-02-01T07:18:01;5.50;99.90
1468;DHT22;727;48.892;9.544;2023-02-01T07:20:28;5.60;99.90
1468;DHT22;727;48.892;9.544;2023-02-01T07:22:55;5.60;99.90
1468;DHT22;727;48.892;9.544;2023-02-01T07:25:23;5.60;99.90
1468;DHT22;727;48.892;9.544;2023-02-01T07:27:50;5.60;99.90
1468;DHT22;727;48.892;9.544;2023-02-01T07:30:17;5.60;99.90
1468;DHT22;727;48.892;9.544;2023-02-01T07:32:44;5.60;99.90
1468;DHT22;727;48.892;9.544;2023-02-01T07:35:12;5.50;99.90
1468;DHT22;727;48.892;9.544;2023-02-01T07:37:39;5.50;99.90
1468;DHT22;727;48.892;9.544;2023-02-01T07:40:07;5.50;99.90
1468;DHT22;727;48.892;9.544;2023-02-01T07:42:34;5.50;99.90
1468;DHT22;727;48.892;9.544;2023-02-01T07:45:00;5.50;99.90
1468;DHT22;727;48.892;9.544;2023-02-01T07:47:27;5.40;99.90
1468;DHT22;727;48.892;9.544;2023-02-01T07:49:54;5.40;99.90
1468;DHT22;727;48.892;9.544;2023-02-01T07:52:22;5.40;99.90
1468;DHT22;727;48.892;9.544;2023-02-01T07:54:49;5.40;99.90
1468;DHT22;727;48.892;9.544;2023-02-01T07:57:16;5.40;99.90
1468;DHT22;727;48.892;9.544;2023-02-01T07:59:43;5.40;99.90
1468;DHT22;727;48.892;9.544;2023-02-01T08:02:24;5.40;99.90
1468;DHT22;727;48.892;9.544;2023-02-01T08:04:50;5.50;99.90
1468;DHT22;727;48.892;9.544;2023-02-01T08:07:17;5.50;99.90
1468;DHT22;727;48.892;9.544;2023-02-01T08:09:45;5.50;99.90
1468;DHT22;727;48.892;9.544;2023-02-01T08:12:12;5.40;99.90
1468;DHT22;727;48.892;9.544;2023-02-01T08:14:39;5.40;99.90
1468;DHT22;727;48.892;9.544;2023-02-01T08:17:06;5.40;99.90
1468;DHT22;727;48.892;9.544;2023-02-01T08:19:33;5.40;99.90
1468;DHT22;727;48.892;9.544;2023-02-01T08:21:59;5.40;99.90
1468;DHT22;727;48.892;9.544;2023-02-01T08:24:31;5.40;99.90
1468;DHT22;727;48.892;9.544;2023-02-01T08:27:00;5.50;99.90
1468;DHT22;727;48.892;9.544;2023-02-01T08:29:27;5.40;99.90
1468;DHT22;727;48.892;9.544;2023-02-01T08:31:54;5.40;99.90
1468;DHT22;727;48.892;9.544;2023-02-01T08:34:20;5.30;99.90
1468;DHT22;727;48.892;9.544;2023-02-01T08:36:47;5.20;99.90
1468;DHT22;727;48.892;9.544;2023-02-01T08:39:14;5.20;99.90
1468;DHT22;727;48.892;9.544;2023-02-01T08:41:41;5.20;99.90
1468;DHT22;727;48.892;9.544;2023-02-01T08:44:29;5.20;99.90
1468;DHT22;727;48.892;9.544;2023-02-01T08:46:56;5.20;99.90
1468;DHT22;727;48.892;9.544;2023-02-01T08:49:23;5.20;99.90
1468;DHT22;727;48.892;9.544;2023-02-01T08:51:50;5.30;99.90
1468;DHT22;727;48.892;9.544;2023-02-01T08:54:16;5.40;99.90
1468;DHT22;727;48.892;9.544;2023-02-01T08:56:44;5.50;99.90
1468;DHT22;727;48.892;9.544;2023-02-01T08:59:10;5.50;99.90
1468;DHT22;727;48.892;9.544;2023-02-01T09:01:38;5.50;99.90
1468;DHT22;727;48.892;9.544;2023-02-01T09:04:05;5.60;99.90
1468;DHT22;727;48.892;9.544;2023-02-01T09:06:32;5.70;99.90
1468;DHT22;727;48.892;9.544;2023-02-01T09:08:58;5.70;99.90
1468;DHT22;727;48.892;9.544;2023-02-01T09:11:25;5.80;99.90
1468;DHT22;727;48.892;9.544;2023-02-01T09:13:52;5.80;99.90
1468;DHT22;727;48.892;9.544;2023-02-01T09:16:19;5.80;99.90
1468;DHT22;727;48.892;9.544;2023-02-01T09:18:47;5.90;99.90
1468;DHT22;727;48.892;9.544;2023-02-01T09:21:13;5.90;99.90
1468;DHT22;727;48.892;9.544;2023-02-01T09:23:40;5.90;99.90
1468;DHT22;727;48.892;9.544;2023-02-01T09:26:08;6.00;99.90
1468;DHT22;727;48.892;9.544;2023-02-01T09:28:36;6.10;99.90
1468;DHT22;727;48.892;9.544;2023-02-01T09:31:03;6.20;99.90
1468;DHT22;727;48.892;9.544;2023-02-01T09:33:30;6.30;99.90
1468;DHT22;727;48.892;9.544;2023-02-01T09:35:59;6.40;99.90
1468;DHT22;727;48.892;9.544;2023-02-01T09:38:27;6.60;99.90
1468;DHT22;727;48.892;9.544;2023-02-01T09:40:54;6.80;99.90
1468;DHT22;727;48.892;9.544;2023-02-01T09:43:29;7.00;99.90
1468;DHT22;727;48.892;9.544;2023-02-01T09:46:04;7.10;99.90
1468;DHT22;727;48.892;9.544;2023-02-01T09:48:38;7.20;99.90
1468;DHT22;727;48.892;9.544;2023-02-01T09:51:20;7.30;99.90
1468;DHT22;727;48.892;9.544;2023-02-01T09:53:58;7.50;99.90
1468;DHT22;727;48.892;9.544;2023-02-01T09:56:32;7.50;99.90
1468;DHT22;727;48.892;9.544;2023-02-01T09:59:06;7.40;99.90
1468;DHT22;727;48.892;9.544;2023-02-01T10:01:36;7.20;99.90
1468;DHT22;727;48.892;9.544;2023-02-01T10:04:07;7.00;99.90
1468;DHT22;727;48.892;9.544;2023-02-01T10:06:43;6.90;99.90
1468;DHT22;727;48.892;9.544;2023-02-01T10:09:39;6.80;99.90
1468;DHT22;727;48.892;9.544;2023-02-01T10:12:36;6.80;99.90
1468;DHT22;727;48.892;9.544;2023-02-01T10:15:19;6.80;99.90
1468;DHT22;727;48.892;9.544;2023-02-01T10:17:57;6.70;99.90
1468;DHT22;727;48.892;9.544;2023-02-01T10:20:29;6.70;99.90
1468;DHT22;727;48.892;9.544;2023-02-01T10:23:06;6.80;99.90
1468;DHT22;727;48.892;9.544;2023-02-01T10:25:40;6.70;99.90
1468;DHT22;727;48.892;9.544;2023-02-01T10:28:14;6.80;99.90
1468;DHT22;727;48.892;9.544;2023-02-01T10:30:44;6.90;99.90
1468;DHT22;727;48.892;9.544;2023-02-01T10:33:16;6.90;99.90
1468;DHT22;727;48.892;9.544;2023-02-01T10:35:45;7.00;99.90
1468;DHT22;727;48.892;9.544;2023-02-01T10:38:28;7.00;99.90
1468;DHT22;727;48.892;9.544;2023-02-01T10:40:56;7.10;99.90
1468;DHT22;727;48.892;9.544;2023-02-01T10:43:27;7.10;99.90
1468;DHT22;727;48.892;9.544;2023-02-01T10:45:54;7.10;99.90
1468;DHT22;727;48.892;9.544;2023-02-01T10:48:20;7.20;99.90
1468;DHT22;727;48.892;9.544;2023-02-01T10:50:53;7.10;99.90
1468;DHT22;727;48.892;9.544;2023-02-01T10:53:25;7.10;99.90
1468;DHT22;727;48.892;9.544;2023-02-01T10:55:55;7.10;99.90
1468;DHT22;727;48.892;9.544;2023-02-01T10:58:27;7.10;99.90
1468;DHT22;727;48.892;9.544;2023-02-01T11:00:57;7.20;99.90
1468;DHT22;727;48.892;9.544;2023-02-01T11:03:41;7.20;99.90
1468;DHT22;727;48.892;9.544;2023-02-01T11:06:13;7.20;99.90
1468;DHT22;727;48.892;9.544;2023-02-01T11:08:46;7.10;99.90
1468;DHT22;727;48.892;9.544;2023-02-01T11:11:13;7.00;99.90
1468;DHT22;727;48.892;9.544;2023-02-01T11:13:40;6.90;99.90
1468;DHT22;727;48.892;9.544;2023-02-01T11:16:11;6.90;99.90
1468;DHT22;727;48.892;9.544;2023-02-01T11:18:38;6.90;99.90
1468;DHT22;727;48.892;9.544;2023-02-01T11:21:06;6.90;99.90
1468;DHT22;727;48.892;9.544;2023-02-01T11:23:39;6.90;99.90
1468;DHT22;727;48.892;9.544;2023-02-01T11:26:11;6.80;99.90
1468;DHT22;727;48.892;9.544;2023-02-01T11:28:39;6.80;99.90
1468;DHT22;727;48.892;9.544;2023-02-01T11:31:10;6.80;99.90
1468;DHT22;727;48.892;9.544;2023-02-01T11:33:42;6.80;99.90
1468;DHT22;727;48.892;9.544;2023-02-01T11:36:16;6.80;99.90
1468;DHT22;727;48.892;9.544;2023-02-01T11:38:51;6.80;99.90
1468;DHT22;727;48.892;9.544;2023-02-01T11:41:23;6.80;99.90
1468;DHT22;727;48.892;9.544;2023-02-01T11:43:53;6.80;99.90
1468;DHT22;727;48.892;9.544;2023-02-01T11:46:23;6.90;99.90
1468;DHT22;727;48.892;9.544;2023-02-01T11:48:53;6.90;99.90
1468;DHT22;727;48.892;9.544;2023-02-01T11:51:37;7.00;99.90
1468;DHT22;727;48.892;9.544;2023-02-01T11:54:15;7.00;99.90
1468;DHT22;727;48.892;9.544;2023-02-01T11:56:49;7.00;99.90
1468;DHT22;727;48.892;9.544;2023-02-01T11:59:29;6.90;99.90
1468;DHT22;727;48.892;9.544;2023-02-01T12:02:20;6.90;99.90
1468;DHT22;727;48.892;9.544;2023-02-01T12:05:06;6.80;99.90
1468;DHT22;727;48.892;9.544;2023-02-01T12:07:48;6.80;99.90
1468;DHT22;727;48.892;9.544;2023-02-01T12:10:26;6.80;99.90
1468;DHT22;727;48.892;9.544;2023-02-01T12:13:05;6.80;99.90
1468;DHT22;727;48.892;9.544;2023-02-01T12:15:44;6.90;99.90
1468;DHT22;727;48.892;9.544;2023-02-01T12:18:48;6.90;99.90
1468;DHT22;727;48.892;9.544;2023-02-01T12:21:28;6.90;99.90
1468;DHT22;727;48.892;9.544;2023-02-01T12:24:12;7.00;99.90
1468;DHT22;727;48.892;9.544;2023-02-01T12:26:58;7.00;99.90
1468;DHT22;727;48.892;9.544;2023-02-01T12:32:29;7.00;99.90
1468;DHT22;727;48.892;9.544;2023-02-01T12:35:13;6.90;98.70
1468;DHT22;727;48.892;9.544;2023-02-01T12:37:55;7.00;99.00
1468;DHT22;727;48.892;9.544;2023-02-01T12:40:43;6.90;98.90
1468;DHT22;727;48.892;9.544;2023-02-01T12:43:15;6.90;99.20
1468;DHT22;727;48.892;9.544;2023-02-01T12:45:52;6.80;99.00
1468;DHT22;727;48.892;9.544;2023-02-01T12:48:27;6.80;99.30
1468;DHT22;727;48.892;9.544;2023-02-01T12:50:56;6.80;99.50
1468;DHT22;727;48.892;9.544;2023-02-01T12:53:32;6.80;98.80
1468;DHT22;727;48.892;9.544;2023-02-01T12:56:04;6.80;99.20
1468;DHT22;727;48.892;9.544;2023-02-01T12:58:39;6.90;98.90
1468;DHT22;727;48.892;9.544;2023-02-01T13:01:12;6.80;98.70
1468;DHT22;727;48.892;9.544;2023-02-01T13:03:54;6.80;98.90
1468;DHT22;727;48.892;9.544;2023-02-01T13:06:26;6.90;99.20
1468;DHT22;727;48.892;9.544;2023-02-01T13:08:57;6.90;99.10
1468;DHT22;727;48.892;9.544;2023-02-01T13:11:29;6.90;99.20
1468;DHT22;727;48.892;9.544;2023-02-01T13:14:02;7.00;99.40
1468;DHT22;727;48.892;9.544;2023-02-01T13:16:35;7.00;99.30
1468;DHT22;727;48.892;9.544;2023-02-01T13:19:10;7.10;99.30
1468;DHT22;727;48.892;9.544;2023-02-01T13:21:42;7.10;99.20
1468;DHT22;727;48.892;9.544;2023-02-01T13:24:23;7.20;99.10
1468;DHT22;727;48.892;9.544;2023-02-01T13:26:53;7.10;99.30
1468;DHT22;727;48.892;9.544;2023-02-01T13:29:21;7.10;99.50
1468;DHT22;727;48.892;9.544;2023-02-01T13:32:04;7.00;99.60
1468;DHT22;727;48.892;9.544;2023-02-01T13:34:55;6.90;99.70
1468;DHT22;727;48.892;9.544;2023-02-01T13:37:36;6.90;99.90
1468;DHT22;727;48.892;9.544;2023-02-01T13:40:21;6.90;99.90
1468;DHT22;727;48.892;9.544;2023-02-01T13:42:54;6.80;99.90
1468;DHT22;727;48.892;9.544;2023-02-01T13:45:23;6.80;99.90
1468;DHT22;727;48.892;9.544;2023-02-01T13:47:54;6.80;99.90
1468;DHT22;727;48.892;9.544;2023-02-01T13:50:24;6.80;99.90
1468;DHT22;727;48.892;9.544;2023-02-01T13:52:55;6.80;99.90
1468;DHT22;727;48.892;9.544;2023-02-01T13:55:32;6.80;99.90
1468;DHT22;727;48.892;9.544;2023-02-01T13:58:03;6.80;99.90
1468;DHT22;727;48.892;9.544;2023-02-01T14:00:33;6.80;99.90
1468;DHT22;727;48.892;9.544;2023-02-01T14:03:22;6.70;99.90
1468;DHT22;727;48.892;9.544;2023-02-01T14:06:18;6.70;99.90
1468;DHT22;727;48.892;9.544;2023-02-01T14:09:30;6.70;99.90
1468;DHT22;727;48.892;9.544;2023-02-01T14:11:58;6.80;99.90
1468;DHT22;727;48.892;9.544;2023-02-01T14:14:47;6.80;99.90
1468;DHT22;727;48.892;9.544;2023-02-01T14:17:29;6.70;99.90
1468;DHT22;727;48.892;9.544;2023-02-01T14:23:25;6.70;99.90
1468;DHT22;727;48.892;9.544;2023-02-01T14:26:09;6.70;99.90
1468;DHT22;727;48.892;9.544;2023-02-01T14:28:40;6.70;99.90
1468;DHT22;727;48.892;9.544;2023-02-01T14:31:31;6.70;99.90
1468;DHT22;727;48.892;9.544;2023-02-01T14:34:00;6.70;99.90
1468;DHT22;727;48.892;9.544;2023-02-01T14:36:40;6.80;99.90
1468;DHT22;727;48.892;9.544;2023-02-01T14:39:25;6.80;99.90
1468;DHT22;727;48.892;9.544;2023-02-01T14:41:55;6.80;99.90
1468;DHT22;727;48.892;9.544;2023-02-01T14:44:31;6.80;99.90
1468;DHT22;727;48.892;9.544;2023-02-01T14:47:29;6.70;99.90
1468;DHT22;727;48.892;9.544;2023-02-01T14:50:31;6.70;99.90
1468;DHT22;727;48.892;9.544;2023-02-01T14:53:18;6.70;99.90
1468;DHT22;727;48.892;9.544;2023-02-01T14:55:51;6.60;99.90
1468;DHT22;727;48.892;9.544;2023-02-01T14:58:27;6.60;99.90
1468;DHT22;727;48.892;9.544;2023-02-01T15:00:57;6.60;99.90
1468;DHT22;727;48.892;9.544;2023-02-01T15:03:44;6.50;99.90
1468;DHT22;727;48.892;9.544;2023-02-01T15:06:23;6.50;99.90
1468;DHT22;727;48.892;9.544;2023-02-01T15:08:54;6.50;99.90
1468;DHT22;727;48.892;9.544;2023-02-01T15:11:22;6.50;99.90
1468;DHT22;727;48.892;9.544;2023-02-01T15:13:50;6.50;99.90
1468;DHT22;727;48.892;9.544;2023-02-01T15:16:20;6.50;99.90
1468;DHT22;727;48.892;9.544;2023-02-01T15:18:48;6.50;99.90
1468;DHT22;727;48.892;9.544;2023-02-01T15:21:18;6.50;99.90
1468;DHT22;727;48.892;9.544;2023-02-01T15:23:44;6.50;99.90
1468;DHT22;727;48.892;9.544;2023-02-01T15:26:28;6.50;99.90
1468;DHT22;727;48.892;9.544;2023-02-01T15:28:56;6.50;99.90
1468;DHT22;727;48.892;9.544;2023-02-01T15:31:34;6.50;99.90
1468;DHT22;727;48.892;9.544;2023-02-01T15:34:01;6.50;99.90
1468;DHT22;727;48.892;9.544;2023-02-01T15:36:28;6.50;99.90
1468;DHT22;727;48.892;9.544;2023-02-01T15:39:15;6.50;99.90
1468;DHT22;727;48.892;9.544;2023-02-01T15:41:49;6.50;99.90
1468;DHT22;727;48.892;9.544;2023-02-01T15:44:30;6.50;99.90
1468;DHT22;727;48.892;9.544;2023-02-01T15:46:58;6.50;99.90
1468;DHT22;727;48.892;9.544;2023-02-01T15:49:29;6.50;99.90
1468;DHT22;727;48.892;9.544;2023-02-01T15:51:58;6.40;99.90
1468;DHT22;727;48.892;9.544;2023-02-01T15:54:28;6.40;99.90
1468;DHT22;727;48.892;9.544;2023-02-01T15:57:00;6.40;99.90
1468;DHT22;727;48.892;9.544;2023-02-01T15:59:32;6.50;99.90
1468;DHT22;727;48.892;9.544;2023-02-01T16:02:01;6.40;99.90
1468;DHT22;727;48.892;9.544;2023-02-01T16:04:29;6.40;99.90
1468;DHT22;727;48.892;9.544;2023-02-01T16:06:58;6.40;99.90
1468;DHT22;727;48.892;9.544;2023-02-01T16:09:36;6.40;99.90
1468;DHT22;727;48.892;9.544;2023-02-01T16:12:26;6.40;99.90
1468;DHT22;727;48.892;9.544;2023-02-01T16:14:54;6.40;99.90
1468;DHT22;727;48.892;9.544;2023-02-01T16:17:21;6.40;99.90
1468;DHT22;727;48.892;9.544;2023-02-01T16:19:48;6.40;99.90
1468;DHT22;727;48.892;9.544;2023-02-01T16:22:14;6.50;99.90
1468;DHT22;727;48.892;9.544;2023-02-01T16:24:41;6.50;99.90
1468;DHT22;727;48.892;9.544;2023-02-01T16:27:10;6.50;99.90
1468;DHT22;727;48.892;9.544;2023-02-01T16:29:36;6.50;99.90
1468;DHT22;727;48.892;9.544;2023-02-01T16:32:03;6.50;99.90
1468;DHT22;727;48.892;9.544;2023-02-01T16:34:31;6.50;99.80
1468;DHT22;727;48.892;9.544;2023-02-01T16:36:58;6.50;99.90
1468;DHT22;727;48.892;9.544;2023-02-01T16:39:25;6.50;99.70
1468;DHT22;727;48.892;9.544;2023-02-01T16:41:53;6.50;99.80
1468;DHT22;727;48.892;9.544;2023-02-01T16:44:21;6.60;99.50
1468;DHT22;727;48.892;9.544;2023-02-01T16:46:48;6.60;99.50
1468;DHT22;727;48.892;9.544;2023-02-01T16:49:18;6.50;99.70
1468;DHT22;727;48.892;9.544;2023-02-01T16:51:45;6.50;99.70
1468;DHT22;727;48.892;9.544;2023-02-01T16:54:14;6.50;99.70
1468;DHT22;727;48.892;9.544;2023-02-01T16:56:41;6.60;98.90
1468;DHT22;727;48.892;9.544;2023-02-01T16:59:09;6.70;98.60
1468;DHT22;727;48.892;9.544;2023-02-01T17:01:37;6.60;98.70
1468;DHT22;727;48.892;9.544;2023-02-01T17:04:06;6.60;98.80
1468;DHT22;727;48.892;9.544;2023-02-01T17:06:35;6.60;99.00
1468;DHT22;727;48.892;9.544;2023-02-01T17:09:03;6.50;99.10
1468;DHT22;727;48.892;9.544;2023-02-01T17:11:31;6.60;98.80
1468;DHT22;727;48.892;9.544;2023-02-01T17:14:01;6.60;98.70